createdAt,value
2023-03-10T00:00:23.145Z,20.05
2023-03-10T00:02:53.321Z,19.83
2023-03-10T00:05:23.047Z,19.70
2023-03-10T00:07:53.008Z,19.85
2023-03-10T00:10:23.197Z,17.65
2023-03-10T00:12:52.666Z,18.67
2023-03-10T00:15:23.498Z,19.85
2023-03-10T00:17:55.860Z,19.48
2023-03-10T00:20:26.575Z,18.38
2023-03-10T00:22:55.799Z,20.48
2023-03-10T00:25:25.608Z,21.00
2023-03-10T00:27:55.343Z,18.45
2023-03-10T00:30:25.133Z,19.55
2023-03-10T00:32:57.945Z,16.85
2023-03-10T00:35:28.119Z,20.27
2023-03-10T00:37:57.784Z,20.05
2023-03-10T00:40:26.171Z,19.50
2023-03-10T00:42:54.630Z,19.67
2023-03-10T00:45:23.036Z,18.95
2023-03-10T00:47:51.420Z,18.95
2023-03-10T00:50:19.836Z,19.98
2023-03-10T00:52:48.260Z,19.98
2023-03-10T00:55:16.770Z,20.95
2023-03-10T00:57:45.081Z,19.60
2023-03-10T01:00:17.012Z,20.42
2023-03-10T01:02:44.950Z,20.17
2023-03-10T01:05:15.268Z,19.70
2023-03-10T01:07:45.174Z,20.05
2023-03-10T01:10:15.189Z,20.85
2023-03-10T01:12:45.239Z,22.05
2023-03-10T01:15:15.017Z,22.13
2023-03-10T01:17:44.864Z,21.35
2023-03-10T01:20:15.309Z,21.35
2023-03-10T01:22:45.372Z,20.88
2023-03-10T01:25:16.197Z,19.40
2023-03-10T01:27:46.197Z,21.02
2023-03-10T01:30:16.364Z,20.83
2023-03-10T01:32:46.288Z,19.77
2023-03-10T01:35:16.454Z,20.17
2023-03-10T01:37:46.245Z,20.60
2023-03-10T01:40:18.844Z,18.48
2023-03-10T01:42:48.909Z,18.17
2023-03-10T01:45:19.039Z,18.80
2023-03-10T01:47:48.291Z,19.50
2023-03-10T01:50:20.014Z,19.13
2023-03-10T01:52:58.461Z,20.23
2023-03-10T01:55:39.900Z,18.88
2023-03-10T01:58:11.237Z,18.67
2023-03-10T02:00:41.901Z,19.10
2023-03-10T02:03:34.919Z,17.88
2023-03-10T02:06:16.984Z,19.40
2023-03-10T02:08:58.416Z,20.30
2023-03-10T02:11:29.541Z,19.98
2023-03-10T02:14:04.750Z,20.05
2023-03-10T02:16:35.397Z,20.15
2023-03-10T02:19:26.973Z,20.88
2023-03-10T02:22:10.965Z,18.95
2023-03-10T02:25:09.134Z,18.60
2023-03-10T02:27:40.984Z,18.75
2023-03-10T02:30:29.409Z,18.63
2023-03-10T02:33:12.089Z,18.98
2023-03-10T02:35:42.262Z,18.15
2023-03-10T02:38:12.566Z,18.42
2023-03-10T02:40:47.325Z,18.17
2023-03-10T02:43:35.309Z,17.55
2023-03-10T02:46:08.417Z,17.17
2023-03-10T02:48:40.022Z,18.23
2023-03-10T02:51:24.532Z,18.38
2023-03-10T02:53:54.022Z,17.38
2023-03-10T02:56:24.576Z,17.60
2023-03-10T02:58:52.790Z,19.38
2023-03-10T03:01:21.482Z,15.85
2023-03-10T03:03:49.528Z,18.15
2023-03-10T03:06:18.116Z,17.73
2023-03-10T03:08:46.288Z,17.70
2023-03-10T03:11:16.154Z,16.50
2023-03-10T03:13:46.125Z,16.58
2023-03-10T03:16:15.360Z,17.27
2023-03-10T03:18:43.025Z,16.35
2023-03-10T03:21:17.370Z,15.57
2023-03-10T03:23:48.394Z,16.65
2023-03-10T03:26:26.962Z,13.82
2023-03-10T03:31:26.412Z,13.10
2023-03-10T03:33:54.684Z,13.85
2023-03-10T03:36:24.412Z,13.80
2023-03-10T03:38:54.233Z,14.50
2023-03-10T03:41:23.981Z,15.35
2023-03-10T03:43:53.760Z,13.13
2023-03-10T03:46:23.693Z,13.48
2023-03-10T03:48:53.441Z,13.80
2023-03-10T03:51:23.251Z,14.38
2023-03-10T03:53:53.285Z,13.32
2023-03-10T03:56:23.159Z,13.85
2023-03-10T03:58:52.997Z,13.82
2023-03-10T04:01:22.745Z,14.55
2023-03-10T04:03:52.844Z,15.45
2023-03-10T04:06:23.320Z,14.23
2023-03-10T04:08:52.592Z,14.13
2023-03-10T04:11:22.311Z,14.23
2023-03-10T04:13:51.967Z,14.02
2023-03-10T04:16:21.819Z,14.40
2023-03-10T04:18:52.212Z,14.48
2023-03-10T04:21:21.469Z,15.00
2023-03-10T04:23:49.920Z,14.25
2023-03-10T04:26:18.273Z,13.48
2023-03-10T04:28:46.830Z,14.00
2023-03-10T04:31:19.172Z,15.30
2023-03-10T04:33:47.035Z,14.98
2023-03-10T04:36:15.574Z,15.82
2023-03-10T04:38:43.365Z,16.17
2023-03-10T04:41:13.012Z,13.55
2023-03-10T04:43:42.674Z,13.25
2023-03-10T04:46:13.590Z,13.88
2023-03-10T04:48:44.149Z,13.82
2023-03-10T04:51:14.042Z,14.85
2023-03-10T04:53:43.887Z,13.43
2023-03-10T04:56:14.781Z,13.40
2023-03-10T04:58:44.102Z,13.15
2023-03-10T05:01:16.445Z,13.52
2023-03-10T05:03:46.345Z,14.80
2023-03-10T05:06:22.282Z,13.85
2023-03-10T05:08:50.268Z,13.90
2023-03-10T05:11:20.340Z,13.35
2023-03-10T05:13:51.148Z,12.75
2023-03-10T05:16:24.258Z,13.85
2023-03-10T05:18:53.537Z,14.40
2023-03-10T05:21:22.855Z,13.80
2023-03-10T05:23:52.880Z,14.18
2023-03-10T05:26:22.548Z,13.20
2023-03-10T05:28:52.634Z,13.25
2023-03-10T05:31:26.340Z,13.90
2023-03-10T05:33:58.327Z,11.70
2023-03-10T05:36:26.492Z,13.63
2023-03-10T05:38:56.166Z,12.10
2023-03-10T05:41:26.066Z,12.93
2023-03-10T05:43:56.107Z,13.77
2023-03-10T05:46:27.437Z,13.00
2023-03-10T05:48:57.638Z,12.52
2023-03-10T05:51:27.966Z,11.48
2023-03-10T05:53:57.520Z,13.93
2023-03-10T05:56:27.288Z,12.80
2023-03-10T05:58:57.067Z,12.70
2023-03-10T06:01:27.151Z,12.00
2023-03-10T06:03:57.546Z,12.50
2023-03-10T06:06:27.844Z,12.68
2023-03-10T06:08:58.341Z,13.48
2023-03-10T06:11:28.513Z,12.55
2023-03-10T06:13:57.978Z,12.55
2023-03-10T06:16:27.938Z,12.25
2023-03-10T06:18:58.355Z,12.30
2023-03-10T06:21:29.577Z,11.90
2023-03-10T06:24:00.482Z,14.02
2023-03-10T06:26:30.503Z,11.70
2023-03-10T06:29:00.505Z,12.43
2023-03-10T06:31:30.483Z,11.48
2023-03-10T06:34:04.219Z,11.10
2023-03-10T06:36:32.734Z,12.18
2023-03-10T06:39:00.360Z,12.32
2023-03-10T06:41:29.204Z,12.32
2023-03-10T06:43:57.512Z,11.95
2023-03-10T06:46:26.174Z,12.38
2023-03-10T06:48:54.735Z,11.00
2023-03-10T06:51:23.875Z,12.52
2023-03-10T06:53:51.202Z,11.68
2023-03-10T06:56:22.963Z,11.38
2023-03-10T06:58:50.943Z,11.25
2023-03-10T07:01:34.013Z,11.13
2023-03-10T07:04:02.849Z,11.00
2023-03-10T07:06:33.060Z,13.68
2023-03-10T07:09:02.454Z,11.27
2023-03-10T07:11:33.362Z,11.52
2023-03-10T07:14:03.622Z,11.90
2023-03-10T07:16:32.977Z,10.70
2023-03-10T07:19:02.857Z,10.75
2023-03-10T07:21:32.875Z,11.60
2023-03-10T07:24:02.903Z,10.93
2023-03-10T07:26:33.079Z,11.70
2023-03-10T07:29:02.971Z,12.02
2023-03-10T07:31:34.737Z,12.18
2023-03-10T07:34:04.859Z,12.50
2023-03-10T07:36:34.731Z,11.98
2023-03-10T07:39:04.759Z,11.63
2023-03-10T07:41:34.259Z,12.68
2023-03-10T07:44:04.856Z,12.13
2023-03-10T07:46:34.344Z,11.48
2023-03-10T07:49:05.015Z,13.05
2023-03-10T07:51:34.239Z,11.27
2023-03-10T07:54:02.576Z,12.65
2023-03-10T07:56:31.111Z,13.38
2023-03-10T07:59:00.913Z,13.10
2023-03-10T08:01:30.922Z,12.13
2023-03-10T08:04:00.773Z,11.57
2023-03-10T08:06:32.765Z,11.57
2023-03-10T08:09:03.176Z,11.93
2023-03-10T08:11:33.230Z,11.80
2023-03-10T08:14:03.140Z,13.35
2023-03-10T08:16:33.076Z,12.25
2023-03-10T08:19:03.418Z,12.48
2023-03-10T08:21:32.861Z,11.50
2023-03-10T08:24:02.639Z,11.27
2023-03-10T08:26:32.431Z,12.88
2023-03-10T08:29:03.014Z,12.20
2023-03-10T08:31:32.508Z,12.63
2023-03-10T08:34:02.406Z,12.70
2023-03-10T08:36:32.105Z,12.68
2023-03-10T08:39:02.412Z,14.23
2023-03-10T08:41:39.852Z,12.40
2023-03-10T08:44:08.626Z,12.40
2023-03-10T08:46:38.098Z,12.65
2023-03-10T08:49:09.680Z,13.15
2023-03-10T08:51:39.866Z,12.65
2023-03-10T08:54:18.571Z,12.40
2023-03-10T08:56:47.155Z,11.93
2023-03-10T08:59:17.036Z,12.43
2023-03-10T09:01:47.577Z,13.30
2023-03-10T09:04:16.940Z,12.88
2023-03-10T09:06:47.049Z,12.30
2023-03-10T09:09:17.836Z,10.80
2023-03-10T09:11:47.276Z,10.82
2023-03-10T09:14:17.366Z,10.23
2023-03-10T09:16:47.544Z,9.23
2023-03-10T09:19:17.589Z,10.15
2023-03-10T09:21:47.843Z,9.43
2023-03-10T09:24:19.481Z,8.13
2023-03-10T09:26:49.555Z,8.32
2023-03-10T09:29:21.491Z,6.57
2023-03-10T09:31:50.790Z,7.22
2023-03-10T09:34:20.609Z,5.53
2023-03-10T09:36:50.633Z,3.83
2023-03-10T09:39:20.449Z,2.90
2023-03-10T09:42:36.455Z,2.25
2023-03-10T09:45:18.811Z,2.33
2023-03-10T09:48:17.564Z,1.70
2023-03-10T09:50:56.401Z,1.30
2023-03-10T09:54:13.039Z,1.35
2023-03-10T09:56:42.454Z,1.52
2023-03-10T09:59:31.799Z,1.30
2023-03-10T10:02:20.256Z,1.17
2023-03-10T10:05:06.460Z,1.38
2023-03-10T10:07:52.800Z,1.52
2023-03-10T10:13:17.792Z,1.00
2023-03-10T10:16:32.049Z,1.30
2023-03-10T10:19:25.649Z,0.90
2023-03-10T10:22:22.949Z,0.93
2023-03-10T10:25:22.243Z,1.27
2023-03-10T10:28:02.129Z,1.58
2023-03-10T10:30:41.083Z,1.35
2023-03-10T10:33:15.315Z,1.13
2023-03-10T10:36:05.389Z,1.25
2023-03-10T10:38:36.175Z,1.30
2023-03-10T10:41:21.584Z,1.25
2023-03-10T10:43:54.806Z,0.82
2023-03-10T10:46:30.381Z,1.00
2023-03-10T10:49:23.786Z,1.30
2023-03-10T10:52:04.588Z,1.00
2023-03-10T10:54:43.735Z,1.20
2023-03-10T10:57:32.564Z,1.23
2023-03-10T11:00:37.041Z,1.10
2023-03-10T11:03:33.071Z,0.80
2023-03-10T11:06:16.413Z,1.05
2023-03-10T11:08:51.327Z,1.38
2023-03-10T11:11:55.289Z,1.20
2023-03-10T11:15:15.447Z,3.47
2023-03-10T11:18:03.972Z,3.45
2023-03-10T11:21:00.302Z,4.18
2023-03-10T11:23:58.576Z,4.97
2023-03-10T11:27:20.150Z,5.80
2023-03-10T11:30:26.652Z,6.25
2023-03-10T11:33:40.023Z,7.20
2023-03-10T11:36:55.747Z,6.75
2023-03-10T11:39:49.167Z,7.10
2023-03-10T11:42:34.089Z,7.55
2023-03-10T11:45:34.492Z,8.02
2023-03-10T11:49:08.690Z,7.63
2023-03-10T11:51:58.386Z,7.63
2023-03-10T11:54:48.412Z,8.20
2023-03-10T11:57:27.964Z,8.20
2023-03-10T12:00:12.709Z,10.65
2023-03-10T12:03:20.065Z,10.75
2023-03-10T12:06:00.492Z,11.90
2023-03-10T12:08:36.254Z,12.02
2023-03-10T12:11:21.619Z,12.32
2023-03-10T12:14:01.908Z,11.38
2023-03-10T12:16:42.018Z,12.38
2023-03-10T12:19:11.596Z,11.02
2023-03-10T12:21:41.392Z,10.77
2023-03-10T12:24:48.341Z,10.23
2023-03-10T12:27:16.778Z,10.48
2023-03-10T12:29:46.874Z,9.10
2023-03-10T12:32:48.588Z,9.40
2023-03-10T12:35:46.279Z,10.38
2023-03-10T12:38:49.197Z,8.90
2023-03-10T12:41:26.618Z,9.32
2023-03-10T12:44:27.417Z,9.68
2023-03-10T12:47:09.338Z,9.00
2023-03-10T12:49:49.808Z,8.23
2023-03-10T12:52:45.055Z,10.10
2023-03-10T12:55:27.811Z,9.20
2023-03-10T12:58:23.606Z,8.93
2023-03-10T13:01:06.536Z,8.68
2023-03-10T13:03:57.500Z,9.25
2023-03-10T13:06:40.864Z,8.77
2023-03-10T13:09:43.638Z,7.57
2023-03-10T13:12:53.345Z,7.68
2023-03-10T13:15:32.180Z,7.17
2023-03-10T13:18:23.857Z,7.45
2023-03-10T13:20:54.834Z,6.47
2023-03-10T13:23:36.856Z,6.53
2023-03-10T13:26:16.999Z,7.55
2023-03-10T13:29:04.098Z,6.63
2023-03-10T13:31:34.869Z,7.10
2023-03-10T13:34:22.584Z,6.70
2023-03-10T13:36:51.399Z,7.43
2023-03-10T13:39:28.003Z,6.40
2023-03-10T13:42:14.587Z,6.50
2023-03-10T13:44:45.112Z,5.22
2023-03-10T13:47:20.249Z,5.32
2023-03-10T13:49:58.069Z,6.60
2023-03-10T13:52:32.206Z,6.25
2023-03-10T13:55:29.575Z,7.10
2023-03-10T13:57:59.987Z,7.57
2023-03-10T14:00:31.169Z,7.05
2023-03-10T14:03:02.630Z,7.00
2023-03-10T14:05:49.194Z,7.88
2023-03-10T14:08:31.032Z,6.68
2023-03-10T14:11:39.051Z,7.65
2023-03-10T14:14:11.778Z,7.35
2023-03-10T14:17:09.699Z,6.90
2023-03-10T14:19:50.184Z,7.47
2023-03-10T14:22:43.363Z,6.77
2023-03-10T14:25:19.060Z,6.63
2023-03-10T14:30:46.058Z,6.15
2023-03-10T14:33:16.954Z,7.03
2023-03-10T14:35:47.319Z,7.53
2023-03-10T14:38:18.000Z,7.22
2023-03-10T14:40:54.352Z,7.85
2023-03-10T14:43:28.280Z,8.25
2023-03-10T14:46:01.847Z,7.80
2023-03-10T14:48:41.906Z,9.68
2023-03-10T14:51:32.648Z,11.40
2023-03-10T14:54:22.749Z,11.65
2023-03-10T14:56:59.336Z,10.73
2023-03-10T14:59:29.726Z,9.45
2023-03-10T15:02:17.283Z,10.02
2023-03-10T15:04:47.523Z,9.10
2023-03-10T15:07:18.012Z,9.45
2023-03-10T15:09:49.555Z,10.95
2023-03-10T15:12:22.776Z,12.00
2023-03-10T15:14:55.350Z,11.95
2023-03-10T15:17:25.390Z,12.07
2023-03-10T15:19:55.393Z,13.25
2023-03-10T15:22:25.384Z,12.70
2023-03-10T15:24:55.454Z,12.82
2023-03-10T15:27:25.482Z,13.80
2023-03-10T15:29:55.538Z,14.27
2023-03-10T15:32:25.662Z,14.32
2023-03-10T15:34:55.714Z,13.90
2023-03-10T15:37:25.803Z,12.75
2023-03-10T15:39:55.789Z,13.20
2023-03-10T15:42:25.823Z,13.65
2023-03-10T15:44:55.811Z,14.00
2023-03-10T15:47:25.862Z,13.23
2023-03-10T15:49:55.921Z,13.35
2023-03-10T15:52:26.278Z,14.25
2023-03-10T15:54:57.118Z,12.90
2023-03-10T15:57:27.161Z,13.63
2023-03-10T15:59:57.331Z,14.40
2023-03-10T16:02:27.373Z,13.75
2023-03-10T16:04:57.432Z,12.80
2023-03-10T16:07:27.470Z,12.90
2023-03-10T16:09:57.568Z,12.43
2023-03-10T16:12:28.500Z,11.25
2023-03-10T16:14:58.655Z,13.43
2023-03-10T16:17:29.700Z,11.32
2023-03-10T16:20:02.225Z,13.18
2023-03-10T16:22:31.094Z,13.13
2023-03-10T16:24:59.545Z,12.93
2023-03-10T16:27:28.016Z,13.40
2023-03-10T16:29:56.376Z,13.30
2023-03-10T16:32:24.877Z,13.05
2023-03-10T16:34:55.181Z,13.80
2023-03-10T16:37:29.557Z,13.15
2023-03-10T16:39:59.862Z,14.23
2023-03-10T16:42:35.717Z,13.50
2023-03-10T16:45:07.687Z,14.77
2023-03-10T16:47:38.031Z,19.77
2023-03-10T16:50:12.659Z,33.33
2023-03-10T16:52:43.216Z,18.38
2023-03-10T16:55:20.067Z,14.88
2023-03-10T16:57:50.138Z,12.05
2023-03-10T17:00:21.167Z,11.50
2023-03-10T17:02:49.698Z,10.80
2023-03-10T17:05:17.767Z,10.60
2023-03-10T17:07:55.164Z,11.88
2023-03-10T17:10:26.879Z,11.98
2023-03-10T17:12:58.035Z,13.20
2023-03-10T17:15:29.889Z,13.48
2023-03-10T17:18:00.338Z,13.88
2023-03-10T17:20:30.376Z,13.40
2023-03-10T17:23:00.484Z,12.65
2023-03-10T17:25:30.524Z,11.82
2023-03-10T17:28:01.443Z,11.57
2023-03-10T17:30:31.506Z,22.35
2023-03-10T17:33:01.607Z,20.92
2023-03-10T17:35:38.383Z,13.02
2023-03-10T17:38:08.505Z,12.60
2023-03-10T17:40:42.907Z,14.30
2023-03-10T17:43:32.463Z,13.77
2023-03-10T17:46:08.797Z,14.35
2023-03-10T17:48:39.087Z,21.23
2023-03-10T17:51:15.202Z,16.20
2023-03-10T17:53:46.979Z,15.82
2023-03-10T17:56:17.363Z,35.50
2023-03-10T17:58:45.405Z,23.48
2023-03-10T18:01:27.153Z,19.27
2023-03-10T18:04:00.438Z,20.00
2023-03-10T18:06:35.214Z,29.05
2023-03-10T18:09:12.620Z,18.67
2023-03-10T18:11:42.749Z,22.83
2023-03-10T18:14:12.846Z,25.27
2023-03-10T18:16:42.970Z,19.77
2023-03-10T18:19:17.637Z,20.23
2023-03-10T18:21:51.078Z,18.40
2023-03-10T18:24:19.213Z,17.23
2023-03-10T18:26:47.557Z,18.08
2023-03-10T18:29:16.599Z,18.55
2023-03-10T18:31:44.455Z,22.08
2023-03-10T18:34:13.619Z,23.63
2023-03-10T18:36:41.198Z,20.73
2023-03-10T18:39:11.727Z,19.60
2023-03-10T18:41:41.267Z,18.88
2023-03-10T18:44:09.433Z,18.58
2023-03-10T18:46:37.962Z,18.40
2023-03-10T18:49:06.584Z,19.35
2023-03-10T18:51:34.671Z,18.60
2023-03-10T18:54:04.827Z,18.48
2023-03-10T18:56:35.558Z,20.95
2023-03-10T18:59:05.691Z,20.60
2023-03-10T19:01:36.340Z,20.35
2023-03-10T19:04:05.659Z,19.65
2023-03-10T19:06:35.472Z,20.83
2023-03-10T19:09:08.572Z,19.58
2023-03-10T19:11:38.937Z,20.67
2023-03-10T19:14:08.598Z,19.15
2023-03-10T19:16:41.225Z,21.33
2023-03-10T19:19:10.620Z,21.20
2023-03-10T19:21:40.272Z,19.33
2023-03-10T19:24:11.245Z,19.45
2023-03-10T19:26:40.027Z,20.45
2023-03-10T19:29:10.149Z,19.50
2023-03-10T19:31:40.204Z,20.92
2023-03-10T19:34:10.289Z,22.02
2023-03-10T19:36:40.065Z,21.90
2023-03-10T19:39:10.003Z,20.92
2023-03-10T19:41:39.794Z,21.35
2023-03-10T19:44:10.849Z,21.30
2023-03-10T19:46:38.068Z,18.75
2023-03-10T19:49:08.642Z,19.40
2023-03-10T19:51:38.357Z,21.00
2023-03-10T19:54:08.242Z,21.15
2023-03-10T19:56:38.360Z,19.15
2023-03-10T19:59:07.994Z,20.90
2023-03-10T20:01:40.263Z,20.30
2023-03-10T20:04:11.140Z,22.45
2023-03-10T20:06:40.755Z,27.27
2023-03-10T20:09:10.671Z,23.02
2023-03-10T20:11:41.672Z,23.23
2023-03-10T20:14:09.557Z,22.02
2023-03-10T20:16:37.552Z,19.58
2023-03-10T20:19:05.716Z,22.08
2023-03-10T20:21:34.254Z,23.15
2023-03-10T20:24:02.689Z,23.20
2023-03-10T20:26:31.115Z,22.15
2023-03-10T20:29:01.690Z,21.30
2023-03-10T20:31:34.213Z,21.35
2023-03-10T20:34:07.239Z,18.92
2023-03-10T20:36:39.724Z,18.85
2023-03-10T20:39:10.039Z,20.92
2023-03-10T20:41:40.042Z,19.95
2023-03-10T20:44:14.187Z,19.48
2023-03-10T20:46:45.341Z,19.20
2023-03-10T20:49:15.446Z,19.42
2023-03-10T20:51:45.250Z,17.77
2023-03-10T20:54:15.147Z,19.67
2023-03-10T20:56:44.813Z,19.30
2023-03-10T20:59:14.551Z,18.58
2023-03-10T21:01:44.330Z,18.92
2023-03-10T21:04:12.779Z,18.92
2023-03-10T21:06:41.218Z,17.63
2023-03-10T21:09:09.598Z,18.75
2023-03-10T21:11:38.071Z,17.25
2023-03-10T21:14:07.101Z,18.83
2023-03-10T21:16:41.472Z,18.13
2023-03-10T21:19:10.816Z,18.55
2023-03-10T21:21:41.275Z,17.63
2023-03-10T21:24:11.899Z,18.80
2023-03-10T21:26:41.385Z,17.95
2023-03-10T21:29:11.540Z,17.30
2023-03-10T21:31:40.955Z,19.35
2023-03-10T21:34:10.762Z,18.08
2023-03-10T21:36:40.748Z,18.80
2023-03-10T21:39:11.250Z,18.58
2023-03-10T21:41:40.654Z,18.67
2023-03-10T21:44:11.835Z,17.08
2023-03-10T21:46:41.619Z,18.45
2023-03-10T21:49:11.919Z,18.67
2023-03-10T21:51:42.139Z,18.48
2023-03-10T21:54:12.194Z,19.83
2023-03-10T21:56:42.031Z,18.75
2023-03-10T21:59:11.880Z,19.48
2023-03-10T22:01:42.226Z,18.15
2023-03-10T22:04:12.945Z,18.55
2023-03-10T22:06:42.735Z,16.17
2023-03-10T22:09:12.808Z,17.48
2023-03-10T22:11:42.660Z,18.65
2023-03-10T22:14:12.888Z,16.23
2023-03-10T22:16:43.023Z,17.58
2023-03-10T22:19:12.746Z,16.58
2023-03-10T22:21:42.506Z,17.45
2023-03-10T22:24:13.940Z,16.05
2023-03-10T22:26:44.110Z,17.05
2023-03-10T22:29:12.630Z,18.38
2023-03-10T22:31:40.885Z,17.00
2023-03-10T22:34:09.313Z,17.90
2023-03-10T22:36:36.453Z,19.08
2023-03-10T22:39:03.869Z,18.42
2023-03-10T22:41:32.014Z,20.55
2023-03-10T22:44:00.457Z,20.58
2023-03-10T22:46:28.894Z,21.20
2023-03-10T22:48:57.315Z,20.02
2023-03-10T22:51:26.012Z,16.60
2023-03-10T22:53:54.214Z,18.80
2023-03-10T22:56:23.688Z,17.77
2023-03-10T22:58:51.194Z,18.25
2023-03-10T23:01:20.365Z,18.23
2023-03-10T23:03:49.024Z,19.02
2023-03-10T23:06:16.931Z,18.80
2023-03-10T23:08:46.748Z,17.10
2023-03-10T23:11:17.105Z,17.20
2023-03-10T23:13:44.937Z,17.45
2023-03-10T23:16:13.526Z,16.63
2023-03-10T23:18:41.636Z,15.80
2023-03-10T23:21:10.321Z,16.40
2023-03-10T23:23:39.991Z,16.33
2023-03-10T23:26:07.239Z,17.05
2023-03-10T23:28:35.633Z,15.35
2023-03-10T23:31:04.676Z,15.52
2023-03-10T23:33:32.896Z,16.98
2023-03-10T23:36:01.145Z,15.98
2023-03-10T23:38:29.473Z,16.67
2023-03-10T23:40:57.882Z,15.60
2023-03-10T23:43:26.491Z,16.45
2023-03-10T23:45:54.798Z,17.05
2023-03-10T23:48:24.819Z,14.30
2023-03-10T23:50:54.924Z,13.90
2023-03-10T23:53:25.641Z,14.30
2023-03-10T23:56:00.277Z,15.27
2023-03-10T23:58:29.860Z,15.25
